Time;durP1;ratioP1;P1;durP2;ratioP2;P2;SDS_P1;SDS_P2;PMS_P1;PMS_P2;Temp;Humidity;BMP_temperature;BMP_pressure;BME280_temperature;BME280_humidity;BME280_pressure;Samples;Min_cycle;Max_cycle;Signal;HPM_P1;HPM_P2
2022/03/29 00:00:51;;;;;;;17.25;9.68;;;9.60;42.60;;;;;;4976538;28;20061;-74
2022/03/29 00:03:16;;;;;;;22.90;10.90;;;9.50;42.60;;;;;;4976341;28;20124;-75
2022/03/29 00:05:42;;;;;;;18.10;10.00;;;9.50;43.70;;;;;;4976623;28;20041;-75
2022/03/29 00:08:07;;;;;;;19.48;9.85;;;9.50;42.90;;;;;;4976749;28;20022;-75
2022/03/29 00:10:33;;;;;;;15.85;8.77;;;9.60;42.50;;;;;;4976033;28;20030;-75
2022/03/29 00:12:58;;;;;;;19.45;9.75;;;9.50;42.70;;;;;;4976466;28;20022;-75
2022/03/29 00:15:25;;;;;;;15.15;9.70;;;9.50;42.80;;;;;;4976556;28;20389;-75
2022/03/29 00:17:51;;;;;;;16.50;9.75;;;9.50;42.80;;;;;;4976352;28;20018;-76
2022/03/29 00:20:20;;;;;;;17.98;9.93;;;9.60;42.70;;;;;;4976476;28;20566;-75
2022/03/29 00:22:49;;;;;;;16.40;9.75;;;9.50;42.80;;;;;;4976448;28;20031;-76
2022/03/29 00:25:15;;;;;;;20.60;10.23;;;9.50;42.90;;;;;;4976420;28;20093;-75
2022/03/29 00:27:41;;;;;;;17.48;9.48;;;9.50;42.80;;;;;;4976078;28;20026;-74
2022/03/29 00:30:11;;;;;;;21.98;9.45;;;9.50;42.90;;;;;;4976425;28;20033;-73
2022/03/29 00:32:39;;;;;;;17.40;9.00;;;9.50;42.60;;;;;;4977005;28;20026;-74
2022/03/29 00:35:06;;;;;;;20.67;10.77;;;9.50;42.70;;;;;;4976640;28;20034;-73
2022/03/29 00:37:32;;;;;;;19.63;10.00;;;9.50;42.80;;;;;;4976610;28;20443;-74
2022/03/29 00:39:57;;;;;;;21.63;10.05;;;9.50;42.80;;;;;;4976487;28;20041;-73
2022/03/29 00:42:23;;;;;;;17.13;9.30;;;9.50;42.70;;;;;;4976531;28;20051;-73
2022/03/29 00:44:48;;;;;;;18.02;10.48;;;9.60;42.80;;;;;;4976553;28;20394;-73
2022/03/29 00:47:14;;;;;;;20.77;9.82;;;9.50;43.70;;;;;;4976491;28;20023;-73
2022/03/29 00:49:40;;;;;;;18.60;9.90;;;9.30;43.20;;;;;;4976697;28;20029;-73
2022/03/29 00:52:06;;;;;;;18.08;9.95;;;9.30;44.10;;;;;;4976651;28;20026;-73
2022/03/29 00:54:37;;;;;;;18.23;10.18;;;9.30;43.40;;;;;;4976565;28;20480;-73
2022/03/29 00:57:04;;;;;;;18.55;9.85;;;9.30;43.40;;;;;;4976591;28;20022;-73
2022/03/29 00:59:30;;;;;;;13.55;8.82;;;9.30;43.40;;;;;;4976626;28;20387;-73
2022/03/29 01:01:57;;;;;;;17.45;9.65;;;9.30;43.50;;;;;;4976551;28;20120;-73
2022/03/29 01:04:29;;;;;;;18.85;10.25;;;9.30;43.50;;;;;;4975942;28;20030;-73
2022/03/29 01:06:59;;;;;;;15.95;9.70;;;9.30;43.50;;;;;;4976087;28;20073;-74
2022/03/29 01:09:26;;;;;;;17.00;9.48;;;9.30;43.50;;;;;;4976144;28;20474;-73
2022/03/29 01:11:52;;;;;;;17.08;9.43;;;9.30;43.60;;;;;;4976127;28;20033;-74
2022/03/29 01:14:20;;;;;;;20.77;9.98;;;9.30;43.70;;;;;;4976398;28;20029;-74
2022/03/29 01:19:29;;;;;;;17.80;10.15;;;9.20;44.00;;;;;;4993904;28;20385;-75
2022/03/29 01:21:57;;;;;;;17.85;9.65;;;9.10;44.90;;;;;;4976345;28;20031;-74
2022/03/29 01:24:25;;;;;;;19.50;10.20;;;9.10;44.30;;;;;;4976004;28;20026;-75
2022/03/29 01:26:52;;;;;;;16.38;9.75;;;9.10;44.20;;;;;;4975904;28;20042;-75
2022/03/29 01:29:20;;;;;;;20.83;9.60;;;9.10;44.20;;;;;;4975946;28;20022;-74
2022/03/29 01:31:48;;;;;;;20.50;10.20;;;9.10;44.10;;;;;;4960115;28;20141;-74
2022/03/29 01:34:14;;;;;;;18.35;9.77;;;9.10;44.40;;;;;;4977849;28;20034;-74
2022/03/29 01:36:40;;;;;;;19.52;10.45;;;9.10;44.40;;;;;;4980030;28;20037;-74
2022/03/29 01:39:05;;;;;;;15.88;9.52;;;9.10;44.40;;;;;;4979777;28;20479;-74
2022/03/29 01:41:31;;;;;;;21.00;10.57;;;9.10;44.30;;;;;;4979806;28;20074;-75
2022/03/29 01:43:57;;;;;;;19.42;10.55;;;9.10;44.40;;;;;;4979802;28;20042;-75
2022/03/29 01:46:23;;;;;;;17.77;9.48;;;9.10;44.20;;;;;;4963779;28;20037;-75
2022/03/29 01:48:49;;;;;;;21.92;9.80;;;9.10;44.10;;;;;;4979776;28;20031;-75
2022/03/29 01:51:15;;;;;;;20.13;10.10;;;9.20;44.00;;;;;;4979938;28;20034;-76
2022/03/29 01:53:41;;;;;;;18.30;10.23;;;9.10;44.00;;;;;;4979739;28;20064;-76
2022/03/29 01:56:07;;;;;;;17.73;10.80;;;9.10;44.00;;;;;;4979298;28;20466;-75
2022/03/29 01:58:33;;;;;;;16.52;9.98;;;9.10;44.30;;;;;;4979743;28;20038;-75
2022/03/29 02:00:59;;;;;;;17.50;10.50;;;9.10;44.60;;;;;;4979602;28;20034;-75
2022/03/29 02:03:25;;;;;;;17.48;9.85;;;9.00;44.40;;;;;;4979229;28;20018;-73
2022/03/29 02:05:51;;;;;;;16.77;9.45;;;9.10;44.50;;;;;;4979101;28;20041;-74
2022/03/29 02:08:16;;;;;;;17.75;9.60;;;9.00;44.70;;;;;;4979344;28;20018;-74
2022/03/29 02:10:42;;;;;;;20.30;10.15;;;9.00;44.70;;;;;;4979096;28;20030;-74
2022/03/29 02:13:11;;;;;;;20.35;9.77;;;8.90;45.40;;;;;;4979126;28;20070;-74
2022/03/29 02:15:39;;;;;;;17.42;9.65;;;8.90;44.70;;;;;;4996428;28;20065;-74
2022/03/29 02:18:05;;;;;;;13.98;9.02;;;9.00;44.70;;;;;;4979375;28;20073;-73
2022/03/29 02:20:31;;;;;;;19.58;9.90;;;9.00;44.80;;;;;;4979086;28;20430;-73
2022/03/29 02:23:06;;;;;;;19.27;9.93;;;9.00;44.60;;;;;;4978894;28;20027;-73
2022/03/29 02:25:32;;;;;;;21.90;9.77;;;9.10;44.60;;;;;;4978726;28;20486;-74
2022/03/29 02:27:58;;;;;;;17.88;9.18;;;9.10;44.40;;;;;;4978759;28;20026;-74
2022/03/29 02:30:23;;;;;;;14.40;9.35;;;9.00;44.30;;;;;;4978733;28;20125;-74
2022/03/29 02:32:49;;;;;;;17.10;9.43;;;9.00;44.50;;;;;;4979057;28;20023;-74
2022/03/29 02:35:14;;;;;;;19.10;9.90;;;9.00;44.70;;;;;;4978733;28;20418;-74
2022/03/29 02:37:40;;;;;;;15.65;9.88;;;8.90;44.80;;;;;;4979076;28;20052;-74
2022/03/29 02:40:07;;;;;;;18.73;10.05;;;8.90;44.90;;;;;;4978764;28;20030;-75
2022/03/29 02:42:47;;;;;;;17.38;9.75;;;8.90;45.30;;;;;;4978615;28;20406;-74
2022/03/29 02:45:17;;;;;;;17.35;9.20;;;8.90;45.50;;;;;;4977440;28;20069;-73
2022/03/29 02:47:48;;;;;;;16.17;9.25;;;8.80;45.80;;;;;;4978460;28;20019;-76
2022/03/29 02:50:14;;;;;;;18.40;10.13;;;8.70;46.30;;;;;;4978364;28;20034;-74
2022/03/29 02:52:43;;;;;;;21.23;9.13;;;8.70;46.60;;;;;;4978380;28;20080;-73
2022/03/29 02:55:09;;;;;;;20.30;9.65;;;8.60;47.00;;;;;;4978365;28;20026;-73
2022/03/29 02:57:35;;;;;;;20.63;9.90;;;8.50;47.30;;;;;;4978149;28;20018;-73
2022/03/29 03:00:01;;;;;;;16.25;9.27;;;8.50;47.50;;;;;;4978290;28;20172;-73
2022/03/29 03:02:26;;;;;;;19.73;10.60;;;8.40;47.60;;;;;;4978002;28;20034;-73
2022/03/29 03:04:52;;;;;;;20.75;10.15;;;8.40;47.50;;;;;;4978072;28;20033;-73
2022/03/29 03:07:17;;;;;;;18.45;9.65;;;8.40;47.30;;;;;;4978416;28;20037;-73
2022/03/29 03:09:43;;;;;;;20.25;10.32;;;8.40;47.10;;;;;;4977962;28;20109;-74
2022/03/29 03:12:09;;;;;;;18.80;10.43;;;8.50;47.00;;;;;;4978024;28;20470;-75
2022/03/29 03:14:35;;;;;;;18.38;10.68;;;8.40;46.90;;;;;;4978369;28;20113;-76
2022/03/29 03:17:00;;;;;;;17.02;9.82;;;8.40;47.70;;;;;;4978073;28;20113;-76
2022/03/29 03:19:26;;;;;;;16.58;9.27;;;8.50;47.10;;;;;;4977961;28;20050;-76
2022/03/29 03:21:51;;;;;;;18.10;9.98;;;8.50;47.00;;;;;;4977701;28;20081;-75
2022/03/29 03:24:17;;;;;;;19.38;9.93;;;8.50;46.90;;;;;;4977693;28;20027;-76
2022/03/29 03:26:43;;;;;;;18.40;9.85;;;8.50;46.80;;;;;;4978054;28;20133;-75
2022/03/29 03:29:08;;;;;;;20.38;10.13;;;8.50;46.70;;;;;;4977761;28;20026;-75
2022/03/29 03:31:34;;;;;;;25.85;10.65;;;8.50;46.80;;;;;;4977706;28;20033;-74
2022/03/29 03:34:00;;;;;;;20.15;10.18;;;8.50;46.80;;;;;;4977732;28;20061;-75
2022/03/29 03:36:26;;;;;;;19.35;10.20;;;8.50;46.70;;;;;;4977508;28;20033;-77
2022/03/29 03:38:51;;;;;;;19.85;10.07;;;8.50;46.70;;;;;;4977549;28;20478;-76
2022/03/29 03:41:17;;;;;;;18.20;10.85;;;8.50;46.70;;;;;;4977396;28;20046;-74
2022/03/29 03:43:43;;;;;;;18.63;10.77;;;8.50;46.70;;;;;;4977136;28;20554;-77
2022/03/29 03:46:08;;;;;;;17.20;10.40;;;8.50;46.60;;;;;;4976927;28;20458;-76
2022/03/29 03:48:34;;;;;;;19.85;10.50;;;8.50;46.60;;;;;;4977576;28;20478;-77
2022/03/29 03:51:01;;;;;;;19.88;10.00;;;8.50;46.60;;;;;;4977337;28;20034;-74
2022/03/29 03:53:26;;;;;;;19.52;10.45;;;8.50;46.70;;;;;;4977228;28;20022;-74
2022/03/29 03:55:52;;;;;;;22.05;10.07;;;8.60;46.80;;;;;;4977037;28;20470;-75
2022/03/29 03:58:17;;;;;;;17.10;10.18;;;8.50;46.90;;;;;;4976880;28;20038;-74
2022/03/29 04:00:43;;;;;;;19.17;9.80;;;8.40;47.10;;;;;;4977343;28;20348;-78
2022/03/29 04:03:09;;;;;;;24.08;10.63;;;8.40;47.00;;;;;;4977252;28;20033;-74
2022/03/29 04:05:36;;;;;;;26.17;11.07;;;8.50;47.10;;;;;;4977110;28;20128;-74
2022/03/29 04:08:01;;;;;;;21.75;10.98;;;8.50;47.00;;;;;;4976641;28;20455;-72
2022/03/29 04:10:27;;;;;;;21.60;10.70;;;8.50;47.00;;;;;;4976508;28;20046;-73
2022/03/29 04:12:53;;;;;;;20.50;10.45;;;8.50;47.10;;;;;;4977022;28;20024;-73
2022/03/29 04:15:18;;;;;;;19.05;11.15;;;8.40;47.30;;;;;;4976851;28;20060;-74
2022/03/29 04:17:44;;;;;;;21.25;10.57;;;8.50;47.10;;;;;;4975793;28;20031;-74
2022/03/29 04:20:10;;;;;;;19.40;10.77;;;8.40;47.00;;;;;;4977128;28;20030;-74
2022/03/29 04:22:36;;;;;;;18.80;10.80;;;8.40;47.20;;;;;;4976739;28;20121;-75
2022/03/29 04:25:03;;;;;;;16.70;10.65;;;8.30;47.30;;;;;;4976895;28;20125;-75
2022/03/29 04:27:28;;;;;;;21.95;11.35;;;8.40;47.40;;;;;;4976796;28;20022;-75
2022/03/29 04:29:54;;;;;;;20.77;10.95;;;8.30;47.30;;;;;;4976467;28;20033;-75
2022/03/29 04:32:19;;;;;;;18.38;10.30;;;8.30;47.30;;;;;;4976168;28;20022;-75
2022/03/29 04:34:46;;;;;;;19.05;10.90;;;8.40;47.40;;;;;;4976574;28;20022;-74
2022/03/29 04:37:12;;;;;;;18.90;10.70;;;8.40;47.40;;;;;;4976404;28;20081;-74
2022/03/29 04:39:39;;;;;;;20.10;10.07;;;8.40;47.50;;;;;;4976295;28;20026;-74
2022/03/29 04:42:05;;;;;;;15.63;8.93;;;8.40;47.40;;;;;;4976437;28;20054;-74
2022/03/29 04:44:32;;;;;;;19.10;10.70;;;8.40;47.30;;;;;;4976543;28;20449;-74
2022/03/29 04:46:57;;;;;;;18.52;9.88;;;8.40;47.30;;;;;;4976352;28;20467;-74
2022/03/29 04:49:23;;;;;;;17.55;9.40;;;8.50;47.20;;;;;;4976717;28;20027;-74
2022/03/29 04:51:48;;;;;;;21.70;10.98;;;8.50;47.20;;;;;;4976394;28;20092;-74
2022/03/29 04:54:14;;;;;;;18.65;10.27;;;8.50;47.10;;;;;;4976293;28;20037;-74
2022/03/29 04:56:39;;;;;;;19.77;9.68;;;8.50;46.90;;;;;;4976183;28;20026;-73
2022/03/29 04:59:05;;;;;;;23.65;10.90;;;8.50;46.70;;;;;;4976291;28;20449;-76
2022/03/29 05:01:31;;;;;;;20.85;10.30;;;8.60;46.60;;;;;;4976501;28;20462;-75
2022/03/29 05:03:56;;;;;;;20.75;10.05;;;8.60;46.60;;;;;;4976065;28;20026;-76
2022/03/29 05:06:22;;;;;;;20.50;10.27;;;8.60;46.60;;;;;;4976305;28;20030;-75
2022/03/29 05:08:47;;;;;;;17.85;9.90;;;8.60;46.70;;;;;;4977161;28;20082;-75
2022/03/29 05:11:13;;;;;;;17.83;9.30;;;8.70;46.80;;;;;;4980083;28;20034;-75
2022/03/29 05:13:38;;;;;;;21.52;11.52;;;8.70;46.70;;;;;;4980402;28;20390;-77
2022/03/29 05:16:05;;;;;;;23.83;9.45;;;8.70;46.80;;;;;;4980083;28;20022;-74
2022/03/29 05:18:30;;;;;;;21.58;9.32;;;8.80;46.80;;;;;;4979887;28;20038;-76
2022/03/29 05:20:56;;;;;;;21.77;10.88;;;8.80;46.60;;;;;;4980190;28;20026;-77
2022/03/29 05:23:23;;;;;;;27.58;11.93;;;8.70;46.60;;;;;;4979973;28;20126;-77
2022/03/29 05:25:49;;;;;;;23.75;11.43;;;8.70;46.90;;;;;;4979726;28;20399;-77
2022/03/29 05:28:15;;;;;;;21.27;9.48;;;8.70;47.00;;;;;;4979776;28;20030;-76
2022/03/29 05:30:41;;;;;;;21.50;10.63;;;8.80;46.80;;;;;;4979381;28;20030;-74
2022/03/29 05:33:10;;;;;;;19.92;11.23;;;8.80;46.80;;;;;;4979526;28;20037;-76
2022/03/29 05:35:36;;;;;;;17.52;9.82;;;8.70;46.90;;;;;;4979595;28;20018;-75
2022/03/29 05:38:03;;;;;;;21.77;10.13;;;8.70;47.00;;;;;;4979140;28;20117;-75
2022/03/29 05:40:30;;;;;;;23.65;10.18;;;8.80;47.10;;;;;;4979430;28;20026;-75
2022/03/29 05:42:56;;;;;;;25.15;10.68;;;8.90;47.40;;;;;;4979373;28;20034;-74
2022/03/29 05:45:22;;;;;;;25.10;10.57;;;8.90;47.30;;;;;;4979243;28;20472;-75
2022/03/29 05:50:32;;;;;;;24.60;9.73;;;8.90;47.00;;;;;;4997031;28;20081;-76
2022/03/29 05:52:58;;;;;;;21.35;10.25;;;8.90;47.00;;;;;;4979328;28;20018;-76
2022/03/29 05:55:25;;;;;;;27.95;11.07;;;9.00;46.80;;;;;;4979286;28;20026;-76
2022/03/29 05:57:52;;;;;;;18.75;9.63;;;9.00;46.70;;;;;;4979121;28;20053;-76
2022/03/29 06:00:18;;;;;;;28.27;11.18;;;9.00;46.80;;;;;;4979221;28;20470;-77
2022/03/29 06:02:44;;;;;;;23.30;11.20;;;9.10;46.90;;;;;;4978876;28;20034;-76
2022/03/29 06:05:11;;;;;;;21.60;11.02;;;9.10;46.80;;;;;;4996374;28;20057;-77
2022/03/29 06:07:36;;;;;;;20.90;10.77;;;9.20;46.80;;;;;;4978650;28;20085;-76
2022/03/29 06:10:06;;;;;;;18.38;10.02;;;9.20;47.40;;;;;;4978384;28;20031;-75
2022/03/29 06:12:33;;;;;;;21.88;10.80;;;9.30;46.60;;;;;;4996028;28;20022;-76
2022/03/29 06:15:02;;;;;;;28.13;11.40;;;9.30;46.50;;;;;;4978797;28;20474;-76
2022/03/29 06:17:28;;;;;;;19.95;10.55;;;9.40;46.70;;;;;;4978507;28;20117;-77
2022/03/29 06:19:54;;;;;;;25.52;11.13;;;9.40;46.70;;;;;;4978708;28;20054;-77
2022/03/29 06:22:20;;;;;;;27.27;11.30;;;9.50;46.60;;;;;;4978592;28;20383;-77
2022/03/29 06:24:46;;;;;;;23.90;11.20;;;9.50;46.70;;;;;;4978336;28;20034;-77
2022/03/29 06:27:11;;;;;;;28.95;11.20;;;9.50;46.70;;;;;;4978351;28;20542;-78
2022/03/29 06:29:37;;;;;;;21.83;10.88;;;9.60;46.40;;;;;;4996371;28;20470;-78
2022/03/29 06:32:04;;;;;;;25.08;11.02;;;9.60;46.30;;;;;;4979738;28;20109;-79
2022/03/29 06:34:30;;;;;;;19.33;10.43;;;9.70;46.10;;;;;;4977987;28;20018;-78
2022/03/29 06:36:56;;;;;;;19.90;10.73;;;9.80;45.90;;;;;;4978369;28;20034;-79
2022/03/29 06:39:22;;;;;;;23.15;10.85;;;10.00;46.00;;;;;;4978161;28;20026;-78
2022/03/29 06:41:48;;;;;;;18.00;10.40;;;10.00;45.80;;;;;;4977693;28;20645;-79
2022/03/29 06:44:14;;;;;;;21.08;10.48;;;10.10;45.80;;;;;;4977822;28;20031;-77
2022/03/29 06:46:39;;;;;;;22.60;10.60;;;10.20;45.80;;;;;;4978010;28;20034;-79
2022/03/29 06:49:06;;;;;;;23.13;10.95;;;10.30;45.70;;;;;;4961865;28;20081;-79
2022/03/29 06:51:36;;;;;;;21.63;11.05;;;10.40;45.60;;;;;;4978135;28;20516;-79
2022/03/29 06:54:04;;;;;;;22.02;10.05;;;10.60;45.50;;;;;;4977868;28;20026;-80
2022/03/29 06:56:30;;;;;;;20.85;9.30;;;10.70;45.50;;;;;;4977444;28;20092;-79
2022/03/29 06:58:57;;;;;;;18.70;9.98;;;10.80;45.60;;;;;;4977869;28;20049;-79
2022/03/29 07:01:22;;;;;;;22.13;10.45;;;10.80;46.60;;;;;;4977390;28;20030;-78
2022/03/29 07:03:48;;;;;;;19.60;9.13;;;10.90;46.00;;;;;;4977346;28;20133;-77
2022/03/29 07:06:14;;;;;;;17.08;9.20;;;10.90;46.00;;;;;;4961194;28;20553;-78
2022/03/29 07:11:16;;;;;;;16.45;9.15;;;11.00;45.80;;;;;;4977690;28;20022;-79
2022/03/29 07:11:25;;;;;;;15.02;8.73;;;11.00;46.30;;;;;;4994556;28;20033;-77
2022/03/29 07:13:51;;;;;;;11.95;7.95;;;11.10;45.50;;;;;;4977286;28;20030;-79
2022/03/29 07:16:17;;;;;;;14.30;8.77;;;11.10;45.70;;;;;;4977369;28;20116;-77
2022/03/29 07:18:43;;;;;;;18.42;9.35;;;11.30;46.50;;;;;;4977624;28;20027;-77
2022/03/29 07:21:12;;;;;;;19.10;10.95;;;11.60;52.40;;;;;;4977218;28;20026;-77
2022/03/29 07:23:40;;;;;;;19.80;9.13;;;11.90;48.70;;;;;;4977088;28;20109;-77
2022/03/29 07:26:06;;;;;;;16.90;7.70;;;12.20;48.20;;;;;;4977315;28;20039;-77
2022/03/29 07:28:31;;;;;;;14.73;8.13;;;12.40;46.90;;;;;;4977139;28;20469;-76
2022/03/29 07:30:58;;;;;;;12.60;7.68;;;12.60;47.00;;;;;;4960929;28;20026;-74
2022/03/29 07:33:24;;;;;;;22.27;9.02;;;12.70;45.50;;;;;;4977083;28;20022;-77
2022/03/29 07:35:49;;;;;;;17.35;8.27;;;12.90;45.50;;;;;;4976895;28;20544;-76
2022/03/29 07:38:15;;;;;;;17.48;8.57;;;13.10;44.80;;;;;;4977129;28;20030;-77
2022/03/29 07:40:42;;;;;;;17.00;8.35;;;13.20;43.90;;;;;;4977138;28;20057;-77
2022/03/29 07:43:11;;;;;;;19.05;8.65;;;13.20;43.30;;;;;;4977166;28;20117;-76
2022/03/29 07:45:37;;;;;;;19.52;8.50;;;13.20;43.70;;;;;;4977255;28;20042;-76
2022/03/29 07:48:04;;;;;;;15.68;8.07;;;13.30;42.80;;;;;;4977096;28;20422;-76
2022/03/29 07:50:32;;;;;;;15.50;8.45;;;13.60;42.60;;;;;;4977065;28;20022;-77
2022/03/29 07:52:59;;;;;;;19.17;10.52;;;13.70;42.60;;;;;;4976923;28;20097;-76
2022/03/29 07:55:25;;;;;;;20.23;10.30;;;13.60;41.90;;;;;;4976820;28;20557;-77
2022/03/29 07:57:51;;;;;;;20.73;9.57;;;13.60;39.70;;;;;;4977304;28;20092;-76
2022/03/29 08:00:32;;;;;;;20.25;10.77;;;13.60;36.10;;;;;;4977002;28;20157;-76
2022/03/29 08:03:03;;;;;;;22.63;10.80;;;13.50;34.00;;;;;;4976689;28;20023;-77
2022/03/29 08:05:29;;;;;;;19.75;9.80;;;13.60;32.50;;;;;;4976810;28;20393;-76
2022/03/29 08:07:57;;;;;;;19.65;9.93;;;13.70;30.90;;;;;;4976723;28;20022;-76
2022/03/29 08:10:23;;;;;;;19.45;9.55;;;13.70;29.60;;;;;;4976840;28;20462;-76
2022/03/29 08:12:49;;;;;;;16.58;9.27;;;13.80;28.60;;;;;;4976535;28;20478;-77
2022/03/29 08:15:15;;;;;;;18.77;9.95;;;13.90;28.20;;;;;;4976358;28;20037;-76
2022/03/29 08:17:40;;;;;;;17.85;9.18;;;14.00;27.80;;;;;;4976668;28;20386;-76
2022/03/29 08:20:07;;;;;;;18.30;9.23;;;14.00;28.90;;;;;;4993955;28;20031;-76
2022/03/29 08:22:34;;;;;;;16.80;9.90;;;14.00;27.40;;;;;;4976782;28;20070;-76
2022/03/29 08:25:01;;;;;;;16.58;9.57;;;14.10;27.50;;;;;;4976455;28;20034;-77
2022/03/29 08:27:27;;;;;;;18.55;9.63;;;14.10;27.20;;;;;;4976447;28;20023;-76
2022/03/29 08:29:52;;;;;;;14.98;8.77;;;14.20;27.00;;;;;;4976615;28;20042;-76
2022/03/29 08:32:18;;;;;;;14.63;8.57;;;14.20;27.20;;;;;;4976315;28;20129;-77
2022/03/29 08:34:44;;;;;;;15.27;10.20;;;14.20;26.70;;;;;;4976492;28;20044;-76
2022/03/29 08:37:09;;;;;;;22.40;9.57;;;14.30;26.30;;;;;;4976291;28;20030;-77
2022/03/29 08:39:35;;;;;;;13.98;8.32;;;14.30;25.70;;;;;;4993818;28;20022;-76
2022/03/29 08:42:10;;;;;;;16.80;8.95;;;14.30;25.30;;;;;;4976172;28;20060;-76
2022/03/29 08:44:38;;;;;;;18.65;9.77;;;14.30;25.10;;;;;;4976092;28;20053;-77
2022/03/29 08:47:07;;;;;;;18.40;9.90;;;14.30;25.00;;;;;;4976200;28;20031;-77
2022/03/29 08:49:33;;;;;;;16.42;8.77;;;14.30;25.10;;;;;;4975775;28;20121;-77
2022/03/29 08:51:59;;;;;;;21.63;9.77;;;14.40;24.80;;;;;;4976086;28;20026;-77
2022/03/29 08:54:25;;;;;;;14.30;8.40;;;14.50;24.60;;;;;;4976291;28;20041;-77
2022/03/29 08:56:50;;;;;;;14.85;8.63;;;14.50;24.50;;;;;;4976137;28;20033;-77
2022/03/29 08:59:16;;;;;;;14.65;8.40;;;14.60;24.10;;;;;;4975967;28;20022;-76
2022/03/29 09:01:42;;;;;;;16.38;9.40;;;14.60;23.90;;;;;;4976169;28;20034;-77
2022/03/29 09:04:10;;;;;;;19.38;8.50;;;14.70;23.80;;;;;;4993375;28;20105;-77
2022/03/29 09:06:54;;;;;;;17.00;8.77;;;14.80;23.20;;;;;;4976116;28;20026;-78
2022/03/29 09:09:24;;;;;;;12.60;7.90;;;14.90;23.40;;;;;;4993323;28;20046;-77
2022/03/29 09:11:53;;;;;;;15.50;9.00;;;15.00;23.00;;;;;;4975775;28;20023;-78
2022/03/29 09:14:20;;;;;;;17.95;8.68;;;15.20;22.40;;;;;;4975745;28;20676;-77
2022/03/29 09:16:46;;;;;;;16.55;9.15;;;15.20;21.90;;;;;;4975526;28;20080;-77
2022/03/29 09:19:13;;;;;;;19.23;8.25;;;15.20;22.10;;;;;;4975662;28;20026;-78
2022/03/29 09:21:43;;;;;;;15.75;8.52;;;15.20;21.80;;;;;;4975956;28;20023;-77
2022/03/29 09:24:15;;;;;;;17.40;8.63;;;15.30;21.70;;;;;;4976032;28;20033;-78
2022/03/29 09:26:43;;;;;;;25.77;8.05;;;15.40;21.70;;;;;;4976234;28;20035;-77
2022/03/29 09:29:19;;;;;;;15.95;8.75;;;15.50;21.30;;;;;;4976468;28;20077;-77
2022/03/29 09:31:45;;;;;;;;;;;15.60;21.00;;;;;;4976714;28;20027;-78
2022/03/29 09:34:14;;;;;;;;;;;15.60;21.10;;;;;;4993816;28;19928;-78
2022/03/29 09:36:46;;;;;;;13.25;8.48;;;15.60;21.30;;;;;;4975614;28;19906;-79
2022/03/29 09:39:31;;;;;;;14.38;8.20;;;15.70;22.10;;;;;;4993020;28;20029;-78
2022/03/29 09:41:59;;;;;;;14.98;8.20;;;15.70;21.20;;;;;;4975738;28;20050;-79
2022/03/29 09:44:35;;;;;;;17.17;8.48;;;15.60;21.30;;;;;;4993085;28;20077;-79
2022/03/29 09:47:04;;;;;;;20.00;8.40;;;15.50;21.20;;;;;;4975939;28;20038;-76
2022/03/29 09:49:47;;;;;;;16.25;8.35;;;15.60;21.30;;;;;;4993055;28;20014;-76
2022/03/29 09:52:17;;;;;;;21.80;9.13;;;15.50;21.20;;;;;;4975971;28;20057;-76
2022/03/29 09:55:02;;;;;;;18.27;8.60;;;15.50;21.70;;;;;;4993966;28;20041;-80
2022/03/29 09:57:40;;;;;;;21.42;8.43;;;15.60;21.20;;;;;;4996934;28;20426;-76
2022/03/29 10:00:08;;;;;;;19.23;9.25;;;15.80;21.40;;;;;;4979225;28;20030;-75
2022/03/29 10:02:36;;;;;;;17.58;8.52;;;15.80;21.90;;;;;;4996084;28;20449;-75
2022/03/29 10:05:02;;;;;;;18.92;8.85;;;15.90;22.10;;;;;;4978618;28;20027;-77
2022/03/29 10:10:44;;;;;;;17.17;8.38;;;16.30;21.60;;;;;;4996080;28;20099;-77
2022/03/29 10:13:11;;;;;;;16.75;8.50;;;16.40;20.60;;;;;;4978832;28;20076;-78
2022/03/29 10:15:39;;;;;;;19.42;8.75;;;16.40;20.70;;;;;;5052186;23;20066;-78
2022/03/29 10:18:05;;;;;;;17.60;9.50;;;16.30;20.60;;;;;;4958746;28;20058;-78
2022/03/29 10:20:33;;;;;;;22.98;8.20;;;16.20;20.90;;;;;;4958798;28;20492;-77
2022/03/29 10:22:59;;;;;;;17.85;8.98;;;16.30;21.30;;;;;;4959013;28;20383;-77
2022/03/29 10:25:26;;;;;;;20.52;9.27;;;16.30;21.00;;;;;;4959317;28;20150;-78
2022/03/29 10:27:53;;;;;;;17.83;8.30;;;16.30;20.50;;;;;;4963911;28;20085;-76
2022/03/29 10:30:30;;;;;;;21.90;8.50;;;16.40;20.50;;;;;;4959458;28;20488;-77
2022/03/29 10:33:23;;;;;;;16.25;8.75;;;16.50;20.50;;;;;;4976196;28;20368;-77
2022/03/29 10:36:09;;;;;;;15.10;7.78;;;16.40;20.80;;;;;;4958683;28;20026;-78
2022/03/29 10:38:44;;;;;;;23.00;9.05;;;16.40;20.70;;;;;;4958586;28;20034;-76
2022/03/29 10:41:28;;;;;;;19.50;8.60;;;16.60;20.70;;;;;;4958549;28;20074;-75
2022/03/29 10:44:05;;;;;;;19.52;9.13;;;16.40;21.20;;;;;;4958401;28;20097;-76
2022/03/29 10:46:37;;;;;;;16.13;8.35;;;16.40;21.40;;;;;;4958438;28;20510;-76
2022/03/29 10:49:16;;;;;;;20.98;9.40;;;16.40;21.80;;;;;;4957938;28;20476;-75
2022/03/29 10:51:41;;;;;;;21.75;8.57;;;16.40;21.40;;;;;;4957511;28;20061;-76
2022/03/29 10:54:33;;;;;;;18.05;8.40;;;16.50;21.70;;;;;;4958032;28;20440;-78
2022/03/29 10:57:01;;;;;;;24.38;8.35;;;16.60;21.60;;;;;;4957945;28;20077;-76
2022/03/29 10:59:29;;;;;;;20.02;8.15;;;16.70;21.70;;;;;;4957722;28;20085;-76
2022/03/29 11:02:08;;;;;;;19.00;9.02;;;16.70;21.80;;;;;;4957984;28;20033;-76
2022/03/29 11:04:34;;;;;;;20.13;7.95;;;16.80;22.00;;;;;;4957217;28;20027;-77
2022/03/29 11:07:05;;;;;;;19.65;8.60;;;16.80;22.00;;;;;;4956910;28;20074;-75
2022/03/29 11:09:33;;;;;;;23.42;8.95;;;16.90;22.10;;;;;;4975260;28;20074;-76
2022/03/29 11:12:00;;;;;;;21.92;8.73;;;16.80;21.50;;;;;;4957690;28;20027;-76
2022/03/29 11:14:29;;;;;;;27.83;8.48;;;16.80;21.00;;;;;;4956805;28;20121;-76
2022/03/29 11:17:16;;;;;;;25.25;7.35;;;16.80;20.80;;;;;;4957634;28;20126;-76
2022/03/29 11:19:44;;;;;;;25.42;8.27;;;16.80;20.90;;;;;;4960174;28;20023;-77
2022/03/29 11:22:24;;;;;;;23.65;7.47;;;16.60;20.70;;;;;;4963827;28;20031;-76
2022/03/29 11:24:54;;;;;;;23.95;7.82;;;16.50;20.40;;;;;;4957588;28;20360;-76
2022/03/29 11:27:23;;;;;;;26.38;7.68;;;16.50;20.80;;;;;;4957661;28;20546;-77
2022/03/29 11:29:51;;;;;;;35.20;8.77;;;16.50;20.50;;;;;;4957020;28;20026;-78
2022/03/29 11:32:17;;;;;;;29.63;7.88;;;16.60;20.70;;;;;;4956854;28;20034;-75
2022/03/29 11:34:44;;;;;;;21.08;7.00;;;16.60;20.40;;;;;;4957292;28;20022;-76
2022/03/29 11:37:33;;;;;;;25.20;7.97;;;16.50;21.60;;;;;;4974645;28;20030;-76
2022/03/29 11:40:01;;;;;;;25.98;7.47;;;16.70;20.60;;;;;;4957208;28;20099;-76
2022/03/29 11:42:53;;;;;;;17.55;7.63;;;16.70;20.50;;;;;;4974768;28;20023;-77
2022/03/29 11:45:25;;;;;;;21.23;7.10;;;16.90;20.60;;;;;;4956898;28;20042;-77
2022/03/29 11:47:55;;;;;;;25.05;8.10;;;16.90;20.30;;;;;;4957406;28;20019;-76
2022/03/29 11:50:52;;;;;;;22.67;8.45;;;16.90;20.40;;;;;;4957274;28;20423;-77
2022/03/29 11:53:30;;;;;;;32.03;7.40;;;16.90;20.50;;;;;;4957759;28;20085;-76
2022/03/29 11:56:01;;;;;;;26.65;7.85;;;16.90;20.50;;;;;;4957156;28;20019;-77
2022/03/29 11:58:41;;;;;;;26.70;8.20;;;17.10;20.10;;;;;;4957129;28;20110;-77
2022/03/29 12:01:18;;;;;;;28.10;7.32;;;17.30;20.00;;;;;;4957179;28;20018;-77
2022/03/29 12:03:52;;;;;;;22.60;7.90;;;17.60;20.00;;;;;;4957473;28;20185;-76
2022/03/29 12:06:20;;;;;;;26.70;7.28;;;17.70;19.80;;;;;;4956976;28;20034;-77
2022/03/29 12:08:46;;;;;;;28.08;7.57;;;17.80;18.90;;;;;;4956990;28;20059;-76
2022/03/29 12:11:12;;;;;;;30.20;7.55;;;17.90;19.20;;;;;;4957134;28;20061;-77
2022/03/29 12:13:38;;;;;;;19.92;7.75;;;17.70;19.60;;;;;;4966137;28;20058;-78
2022/03/29 12:16:24;;;;;;;25.98;7.72;;;17.90;19.50;;;;;;4956356;28;20407;-77
2022/03/29 12:18:50;;;;;;;22.50;7.80;;;17.80;19.50;;;;;;4955777;28;20033;-77
2022/03/29 12:21:19;;;;;;;25.27;7.22;;;17.90;19.50;;;;;;4955863;28;20107;-78
2022/03/29 12:23:46;;;;;;;18.33;7.53;;;17.90;19.20;;;;;;4956063;28;20027;-77
2022/03/29 12:26:13;;;;;;;25.05;7.93;;;17.90;19.30;;;;;;4955807;28;20081;-78
2022/03/29 12:28:41;;;;;;;22.38;6.90;;;18.00;19.30;;;;;;4956349;28;20467;-77
2022/03/29 12:31:16;;;;;;;15.18;6.63;;;18.20;19.70;;;;;;4956369;28;20065;-77
2022/03/29 12:33:42;;;;;;;19.92;7.80;;;18.40;19.40;;;;;;4956659;28;20023;-78
2022/03/29 12:36:13;;;;;;;17.70;7.45;;;18.30;19.20;;;;;;4955962;28;20046;-77
2022/03/29 12:38:51;;;;;;;29.50;8.20;;;18.50;19.20;;;;;;4956461;28;20387;-77
2022/03/29 12:41:33;;;;;;;28.88;8.20;;;18.40;18.70;;;;;;4956495;28;20379;-76
2022/03/29 12:44:01;;;;;;;21.27;7.20;;;18.40;19.30;;;;;;4956113;28;20491;-76
2022/03/29 12:46:29;;;;;;;23.55;7.15;;;18.40;19.50;;;;;;4956578;28;20038;-76
2022/03/29 12:48:55;;;;;;;23.60;7.80;;;18.70;19.10;;;;;;4939760;28;20043;-78
2022/03/29 12:51:29;;;;;;;17.15;7.68;;;18.80;19.50;;;;;;4956392;28;20062;-77